createdAt,value
2023-05-17T00:00:07.484Z,7.89
2023-05-17T00:01:07.379Z,7.86
2023-05-17T00:02:07.488Z,7.85
2023-05-17T00:03:07.408Z,7.83
2023-05-17T00:04:07.410Z,7.83
2023-05-17T00:05:07.340Z,7.82
2023-05-17T00:06:07.383Z,7.80
2023-05-17T00:07:07.323Z,7.79
2023-05-17T00:08:07.293Z,7.77
2023-05-17T00:09:07.319Z,7.75
2023-05-17T00:10:07.291Z,7.74
2023-05-17T00:11:07.264Z,7.71
2023-05-17T00:12:07.243Z,7.69
2023-05-17T00:13:07.258Z,7.69
2023-05-17T00:14:07.210Z,7.64
2023-05-17T00:15:07.185Z,7.63
2023-05-17T00:16:07.182Z,7.63
2023-05-17T00:17:07.169Z,7.61
2023-05-17T00:18:07.227Z,7.60
2023-05-17T00:19:07.352Z,7.58
2023-05-17T00:20:07.184Z,7.57
2023-05-17T00:21:07.115Z,7.57
2023-05-17T00:22:07.122Z,7.52
2023-05-17T00:23:07.089Z,7.52
2023-05-17T00:24:07.082Z,7.50
2023-05-17T00:25:07.090Z,7.50
2023-05-17T00:26:07.063Z,7.50
2023-05-17T00:27:07.042Z,7.49
2023-05-17T00:28:07.017Z,7.46
2023-05-17T00:29:07.042Z,7.46
2023-05-17T00:30:07.008Z,7.45
2023-05-17T00:31:07.025Z,7.45
2023-05-17T00:32:07.000Z,7.43
2023-05-17T00:33:07.026Z,7.42
2023-05-17T00:34:06.945Z,7.40
2023-05-17T00:35:06.983Z,7.39
2023-05-17T00:36:06.954Z,7.39
2023-05-17T00:37:06.943Z,7.37
2023-05-17T00:38:06.895Z,7.37
2023-05-17T00:39:06.888Z,7.35
2023-05-17T00:40:06.890Z,7.35
2023-05-17T00:41:06.879Z,7.35
2023-05-17T00:42:06.845Z,7.35
2023-05-17T00:43:06.866Z,7.35
2023-05-17T00:44:06.834Z,7.34
2023-05-17T00:45:06.812Z,7.34
2023-05-17T00:46:06.818Z,7.34
2023-05-17T00:47:06.884Z,7.32
2023-05-17T00:48:06.892Z,7.31
2023-05-17T00:49:06.747Z,7.32
2023-05-17T00:50:06.767Z,7.31
2023-05-17T00:51:06.732Z,7.28
2023-05-17T00:52:06.711Z,7.30
2023-05-17T00:53:06.778Z,7.30
2023-05-17T00:54:06.673Z,7.30
2023-05-17T00:55:06.722Z,7.30
2023-05-17T00:56:06.688Z,7.27
2023-05-17T00:57:06.647Z,7.24
2023-05-17T00:58:06.680Z,7.24
2023-05-17T00:59:06.646Z,7.23
2023-05-17T01:00:06.601Z,7.23
2023-05-17T01:01:06.594Z,7.17
2023-05-17T01:02:06.608Z,7.17
2023-05-17T01:03:06.671Z,7.16
2023-05-17T01:04:06.717Z,7.15
2023-05-17T01:05:06.570Z,7.13
2023-05-17T01:06:06.533Z,7.09
2023-05-17T01:07:06.504Z,7.07
2023-05-17T01:08:06.528Z,7.06
2023-05-17T01:09:06.510Z,7.05
2023-05-17T01:10:06.505Z,7.03
2023-05-17T01:11:06.471Z,7.02
2023-05-17T01:12:06.446Z,6.99
2023-05-17T01:13:06.474Z,6.99
2023-05-17T01:14:06.415Z,6.98
2023-05-17T01:15:06.414Z,6.94
2023-05-17T01:16:06.402Z,6.94
2023-05-17T01:17:06.378Z,6.92
2023-05-17T01:18:06.480Z,6.91
2023-05-17T01:19:06.408Z,6.91
2023-05-17T01:20:06.701Z,6.91
2023-05-17T01:21:06.332Z,6.88
2023-05-17T01:22:06.357Z,6.87
2023-05-17T01:23:06.357Z,6.85
2023-05-17T01:24:06.296Z,6.81
2023-05-17T01:25:06.273Z,6.80
2023-05-17T01:26:06.277Z,6.79
2023-05-17T01:27:06.252Z,6.77
2023-05-17T01:28:06.238Z,6.76
2023-05-17T01:29:06.289Z,6.76
2023-05-17T01:30:06.284Z,6.76
2023-05-17T01:31:06.193Z,6.74
2023-05-17T01:32:06.197Z,6.77
2023-05-17T01:33:06.266Z,6.76
2023-05-17T01:34:06.167Z,6.74
2023-05-17T01:35:06.192Z,6.71
2023-05-17T01:36:06.120Z,6.71
2023-05-17T01:37:06.121Z,6.70
2023-05-17T01:38:06.131Z,6.70
2023-05-17T01:39:06.126Z,6.70
2023-05-17T01:40:06.084Z,6.69
2023-05-17T01:41:06.095Z,6.70
2023-05-17T01:42:06.047Z,6.69
2023-05-17T01:43:06.039Z,6.67
2023-05-17T01:44:06.037Z,6.69
2023-05-17T01:45:06.024Z,6.69
2023-05-17T01:46:06.026Z,6.70
2023-05-17T01:47:05.985Z,6.69
2023-05-17T01:48:06.142Z,6.69
2023-05-17T01:49:05.960Z,6.67
2023-05-17T01:50:05.946Z,6.66
2023-05-17T01:51:06.112Z,6.64
2023-05-17T01:52:05.920Z,6.64
2023-05-17T01:53:05.915Z,6.62
2023-05-17T01:54:05.925Z,6.62
2023-05-17T01:55:05.888Z,6.61
2023-05-17T01:56:06.098Z,6.61
2023-05-17T01:57:05.853Z,6.58
2023-05-17T01:58:05.843Z,6.58
2023-05-17T01:59:05.828Z,6.56
2023-05-17T02:00:05.818Z,6.55
2023-05-17T02:01:05.817Z,6.55
2023-05-17T02:02:05.822Z,6.55
2023-05-17T02:03:05.839Z,6.54
2023-05-17T02:04:05.791Z,6.54
2023-05-17T02:05:05.780Z,6.52
2023-05-17T02:06:05.740Z,6.51
2023-05-17T02:07:05.743Z,6.54
2023-05-17T02:08:05.727Z,6.56
2023-05-17T02:09:05.688Z,6.56
2023-05-17T02:10:05.673Z,6.58
2023-05-17T02:11:05.669Z,6.56
2023-05-17T02:12:05.672Z,6.58
2023-05-17T02:13:05.664Z,6.55
2023-05-17T02:14:05.628Z,6.56
2023-05-17T02:15:05.612Z,6.55
2023-05-17T02:16:05.611Z,6.54
2023-05-17T02:17:05.595Z,6.52
2023-05-17T02:18:05.668Z,6.52
2023-05-17T02:19:05.608Z,6.51
2023-05-17T02:20:05.556Z,6.51
2023-05-17T02:21:05.551Z,6.49
2023-05-17T02:22:05.529Z,6.49
2023-05-17T02:23:05.525Z,6.46
2023-05-17T02:24:05.574Z,6.46
2023-05-17T02:25:05.487Z,6.43
2023-05-17T02:26:05.486Z,6.41
2023-05-17T02:27:05.472Z,6.41
2023-05-17T02:28:05.447Z,6.38
2023-05-17T02:29:05.437Z,6.38
2023-05-17T02:30:05.506Z,6.38
2023-05-17T02:31:05.413Z,6.38
2023-05-17T02:32:05.390Z,6.38
2023-05-17T02:33:05.543Z,6.38
2023-05-17T02:34:05.406Z,6.38
2023-05-17T02:35:05.353Z,6.37
2023-05-17T02:36:05.387Z,6.37
2023-05-17T02:37:05.334Z,6.34
2023-05-17T02:38:05.316Z,6.31
2023-05-17T02:39:05.299Z,6.31
2023-05-17T02:40:05.304Z,6.28
2023-05-17T02:41:05.290Z,6.28
2023-05-17T02:42:05.287Z,6.27
2023-05-17T02:43:05.261Z,6.28
2023-05-17T02:44:05.252Z,6.27
2023-05-17T02:45:05.247Z,6.27
2023-05-17T02:46:05.206Z,6.28
2023-05-17T02:47:05.284Z,6.28
2023-05-17T02:48:05.237Z,6.28
2023-05-17T02:49:05.168Z,6.28
2023-05-17T02:50:05.163Z,6.28
2023-05-17T02:51:05.169Z,6.28
2023-05-17T02:52:05.229Z,6.27
2023-05-17T02:53:05.122Z,6.28
2023-05-17T02:54:05.099Z,6.27
2023-05-17T02:55:05.161Z,6.28
2023-05-17T02:56:05.083Z,6.30
2023-05-17T02:57:05.064Z,6.30
2023-05-17T02:58:05.078Z,6.28
2023-05-17T02:59:05.049Z,6.30
2023-05-17T03:00:05.043Z,6.30
2023-05-17T03:01:05.036Z,6.30
2023-05-17T03:02:04.994Z,6.31
2023-05-17T03:03:05.114Z,6.33
2023-05-17T03:04:05.122Z,6.33
2023-05-17T03:05:05.025Z,6.36
2023-05-17T03:06:05.074Z,6.34
2023-05-17T03:07:07.009Z,6.38
2023-05-17T03:08:04.918Z,6.40
2023-05-17T03:09:04.912Z,6.43
2023-05-17T03:10:04.928Z,6.48
2023-05-17T03:11:04.887Z,6.51
2023-05-17T03:12:04.858Z,6.51
2023-05-17T03:13:04.866Z,6.52
2023-05-17T03:14:04.872Z,6.51
2023-05-17T03:15:04.838Z,6.54
2023-05-17T03:16:04.821Z,6.55
2023-05-17T03:17:04.816Z,6.56
2023-05-17T03:18:04.912Z,6.56
2023-05-17T03:19:04.928Z,6.56
2023-05-17T03:20:04.795Z,6.56
2023-05-17T03:21:04.764Z,6.58
2023-05-17T03:22:04.743Z,6.59
2023-05-17T03:23:04.732Z,6.61
2023-05-17T03:24:04.719Z,6.66
2023-05-17T03:25:04.693Z,6.69
2023-05-17T03:26:04.728Z,6.71
2023-05-17T03:27:04.711Z,6.71
2023-05-17T03:28:04.659Z,6.73
2023-05-17T03:29:04.651Z,6.74
2023-05-17T03:30:04.633Z,6.76
2023-05-17T03:31:04.683Z,6.77
2023-05-17T03:32:04.639Z,6.81
2023-05-17T03:33:04.752Z,6.81
2023-05-17T03:34:04.744Z,6.81
2023-05-17T03:35:04.584Z,6.84
2023-05-17T03:36:04.544Z,6.84
2023-05-17T03:37:04.543Z,6.84
2023-05-17T03:38:04.523Z,6.87
2023-05-17T03:39:04.566Z,6.87
2023-05-17T03:40:04.500Z,6.89
2023-05-17T03:41:04.507Z,6.89
2023-05-17T03:42:04.476Z,6.92
2023-05-17T03:43:04.485Z,6.94
2023-05-17T03:44:04.507Z,6.95
2023-05-17T03:45:04.436Z,6.98
2023-05-17T03:46:04.430Z,6.98
2023-05-17T03:47:04.424Z,7.03
2023-05-17T03:48:04.437Z,7.05
2023-05-17T03:49:04.431Z,7.06
2023-05-17T03:50:04.426Z,7.09
2023-05-17T03:51:04.343Z,7.12
2023-05-17T03:52:04.367Z,7.13
2023-05-17T03:53:04.335Z,7.15
2023-05-17T03:54:04.328Z,7.15
2023-05-17T03:55:04.476Z,7.20
2023-05-17T03:56:04.314Z,7.24
2023-05-17T03:57:04.276Z,7.25
2023-05-17T03:58:04.279Z,7.27
2023-05-17T03:59:04.258Z,7.28
2023-05-17T04:00:04.254Z,7.30
2023-05-17T04:01:04.249Z,7.31
2023-05-17T04:02:04.198Z,7.31
2023-05-17T04:03:04.279Z,7.35
2023-05-17T04:04:04.242Z,7.37
2023-05-17T04:05:04.252Z,7.39
2023-05-17T04:06:04.162Z,7.42
2023-05-17T04:07:04.173Z,7.43
2023-05-17T04:08:04.161Z,7.46
2023-05-17T04:09:04.118Z,7.49
2023-05-17T04:10:04.126Z,7.50
2023-05-17T04:11:04.117Z,7.53
2023-05-17T04:12:04.082Z,7.53
2023-05-17T04:13:04.068Z,7.53
2023-05-17T04:14:04.072Z,7.60
2023-05-17T04:15:04.049Z,7.63
2023-05-17T04:16:04.055Z,7.67
2023-05-17T04:17:04.017Z,7.68
2023-05-17T04:18:04.096Z,7.68
2023-05-17T04:19:04.083Z,7.69
2023-05-17T04:20:03.981Z,7.71
2023-05-17T04:21:03.984Z,7.72
2023-05-17T04:22:03.950Z,7.74
2023-05-17T04:23:03.938Z,7.77
2023-05-17T04:24:03.967Z,7.77
2023-05-17T04:25:03.988Z,7.79
2023-05-17T04:26:03.903Z,7.83
2023-05-17T04:27:03.899Z,7.85
2023-05-17T04:28:03.865Z,7.86
2023-05-17T04:29:03.894Z,7.86
2023-05-17T04:30:03.890Z,7.89
2023-05-17T04:31:03.856Z,7.90
2023-05-17T04:32:03.824Z,7.92
2023-05-17T04:33:03.968Z,7.93
2023-05-17T04:34:03.812Z,7.95
2023-05-17T04:35:03.804Z,7.97
2023-05-17T04:36:03.773Z,7.98
2023-05-17T04:37:03.758Z,8.00
2023-05-17T04:38:03.735Z,8.01
2023-05-17T04:39:03.819Z,8.02
2023-05-17T04:40:03.739Z,8.05
2023-05-17T04:41:03.729Z,8.05
2023-05-17T04:42:03.690Z,8.08
2023-05-17T04:43:03.674Z,8.10
2023-05-17T04:44:03.671Z,8.12
2023-05-17T04:45:03.649Z,8.12
2023-05-17T04:46:03.645Z,8.15
2023-05-17T04:47:03.673Z,8.18
2023-05-17T04:48:03.675Z,8.20
2023-05-17T04:49:03.690Z,8.20
2023-05-17T04:50:03.590Z,8.23
2023-05-17T04:51:03.565Z,8.23
2023-05-17T04:52:06.106Z,8.25
2023-05-17T04:53:03.582Z,8.28
2023-05-17T04:54:03.519Z,8.28
2023-05-17T04:55:03.528Z,8.30
2023-05-17T04:56:03.513Z,8.30
2023-05-17T04:57:03.536Z,8.34
2023-05-17T04:58:03.476Z,8.33
2023-05-17T04:59:03.462Z,8.36
2023-05-17T05:00:03.482Z,8.34
2023-05-17T05:01:03.498Z,8.36
2023-05-17T05:02:03.442Z,8.37
2023-05-17T05:03:03.519Z,8.37
2023-05-17T05:04:03.549Z,8.38
2023-05-17T05:05:03.583Z,8.38
2023-05-17T05:06:03.375Z,8.38
2023-05-17T05:07:03.376Z,8.38
2023-05-17T05:08:03.398Z,8.40
2023-05-17T05:09:03.355Z,8.40
2023-05-17T05:10:03.319Z,8.40
2023-05-17T05:11:03.314Z,8.41
2023-05-17T05:12:03.276Z,8.41
2023-05-17T05:13:03.295Z,8.44
2023-05-17T05:14:03.262Z,8.44
2023-05-17T05:15:03.264Z,8.45
2023-05-17T05:16:03.259Z,8.45
2023-05-17T05:17:03.226Z,8.50
2023-05-17T05:18:03.334Z,8.52
2023-05-17T05:19:03.650Z,8.55
2023-05-17T05:20:03.180Z,8.56
2023-05-17T05:21:03.173Z,8.58
2023-05-17T05:22:03.167Z,8.59
2023-05-17T05:23:03.176Z,8.59
2023-05-17T05:24:03.139Z,8.62
2023-05-17T05:25:03.169Z,8.63
2023-05-17T05:26:03.105Z,8.70
2023-05-17T05:27:04.425Z,8.70
2023-05-17T05:28:03.817Z,8.71
2023-05-17T05:29:03.065Z,8.73
2023-05-17T05:30:03.102Z,8.76
2023-05-17T05:31:03.086Z,8.76
2023-05-17T05:32:03.024Z,8.80
2023-05-17T05:33:03.121Z,8.81
2023-05-17T05:34:03.126Z,8.83
2023-05-17T05:35:03.049Z,8.86
2023-05-17T05:36:02.963Z,8.87
2023-05-17T05:37:02.954Z,8.91
2023-05-17T05:38:02.951Z,8.87
2023-05-17T05:39:02.979Z,8.91
2023-05-17T05:40:02.966Z,8.92
2023-05-17T05:41:02.910Z,8.95
2023-05-17T05:42:02.936Z,8.98
2023-05-17T05:43:02.893Z,8.99
2023-05-17T05:44:02.897Z,9.01
2023-05-17T05:45:02.893Z,9.04
2023-05-17T05:46:02.856Z,9.10
2023-05-17T05:47:02.845Z,9.11
2023-05-17T05:48:03.805Z,9.13
2023-05-17T05:49:02.879Z,9.15
2023-05-17T05:50:02.804Z,9.20
2023-05-17T05:51:02.783Z,9.23
2023-05-17T05:52:02.800Z,9.28
2023-05-17T05:53:17.322Z,9.31
2023-05-17T05:54:03.739Z,9.33
2023-05-17T05:55:02.762Z,9.32
2023-05-17T05:56:02.699Z,9.36
2023-05-17T05:57:02.708Z,9.39
2023-05-17T05:58:02.751Z,9.43
2023-05-17T05:59:02.683Z,9.50
2023-05-17T06:00:02.705Z,9.53
2023-05-17T06:01:05.377Z,9.54
2023-05-17T06:02:02.636Z,9.54
2023-05-17T06:03:02.654Z,9.56
2023-05-17T06:04:02.844Z,9.48
2023-05-17T06:05:02.588Z,9.48
2023-05-17T06:06:02.769Z,9.48
2023-05-17T06:07:02.598Z,9.51
2023-05-17T06:08:02.584Z,9.53
2023-05-17T06:09:02.555Z,9.56
2023-05-17T06:10:02.617Z,9.57
2023-05-17T06:11:02.535Z,9.60
2023-05-17T06:12:02.502Z,9.66
2023-05-17T06:13:02.581Z,9.68
2023-05-17T06:14:02.479Z,9.74
2023-05-17T06:15:02.466Z,9.76
2023-05-17T06:16:02.469Z,9.84
2023-05-17T06:17:02.428Z,9.91
2023-05-17T06:18:02.616Z,9.96
2023-05-17T06:19:02.683Z,9.96
2023-05-17T06:20:02.507Z,9.99
2023-05-17T06:21:02.395Z,9.99
2023-05-17T06:22:02.399Z,10.02
2023-05-17T06:23:02.357Z,10.05
2023-05-17T06:24:04.769Z,10.04
2023-05-17T06:25:02.376Z,10.08
2023-05-17T06:26:02.545Z,10.09
2023-05-17T06:27:02.313Z,10.14
2023-05-17T06:28:02.341Z,10.17
2023-05-17T06:29:02.283Z,10.20
2023-05-17T06:30:03.788Z,10.23
2023-05-17T06:31:02.280Z,10.27
2023-05-17T06:32:02.261Z,10.27
2023-05-17T06:33:02.338Z,10.27
2023-05-17T06:34:02.317Z,10.29
2023-05-17T06:35:02.331Z,10.32
2023-05-17T06:37:02.187Z,10.36
2023-05-17T06:38:02.164Z,10.41
2023-05-17T06:39:02.152Z,10.40
2023-05-17T06:40:15.463Z,10.38
2023-05-17T06:41:03.169Z,10.42
2023-05-17T06:42:02.144Z,10.45
2023-05-17T06:43:02.182Z,10.51
2023-05-17T06:44:02.115Z,10.48
2023-05-17T06:45:02.084Z,10.52
2023-05-17T06:46:02.806Z,10.55
2023-05-17T06:47:02.098Z,10.60
2023-05-17T06:48:02.144Z,10.61
2023-05-17T06:49:02.200Z,10.61
2023-05-17T06:50:02.019Z,10.63
2023-05-17T06:51:01.997Z,10.66
2023-05-17T06:52:02.012Z,10.64
2023-05-17T06:53:01.966Z,10.63
2023-05-17T06:54:01.961Z,10.64
2023-05-17T06:55:01.936Z,10.61
2023-05-17T06:56:01.944Z,10.64
2023-05-17T06:57:01.976Z,10.66
2023-05-17T06:58:01.938Z,10.73
2023-05-17T06:59:01.898Z,10.73
2023-05-17T07:00:01.880Z,10.78
2023-05-17T07:01:01.855Z,10.82
2023-05-17T07:02:01.864Z,10.86
2023-05-17T07:03:01.994Z,10.91
2023-05-17T07:04:01.900Z,11.00
2023-05-17T07:05:02.099Z,11.02
2023-05-17T07:06:01.802Z,10.91
2023-05-17T07:07:01.767Z,10.92
2023-05-17T07:08:01.770Z,10.89
2023-05-17T07:09:01.791Z,10.89
2023-05-17T07:10:01.770Z,10.91
2023-05-17T07:11:01.722Z,10.94
2023-05-17T07:12:01.746Z,10.94
2023-05-17T07:13:01.716Z,10.92
2023-05-17T07:14:01.694Z,10.89
2023-05-17T07:15:01.708Z,10.89
2023-05-17T07:16:01.664Z,10.88
2023-05-17T07:17:01.673Z,10.97
2023-05-17T07:18:01.786Z,11.06
2023-05-17T07:19:01.661Z,11.11
2023-05-17T07:20:01.819Z,11.18
2023-05-17T07:21:01.588Z,11.18
2023-05-17T07:22:01.595Z,11.14
2023-05-17T07:23:01.592Z,11.07
2023-05-17T07:24:01.549Z,11.10
2023-05-17T07:25:01.572Z,11.21
2023-05-17T07:26:01.535Z,11.35
2023-05-17T07:27:01.519Z,11.46
2023-05-17T07:28:01.498Z,11.61
2023-05-17T07:29:01.506Z,11.70
2023-05-17T07:30:01.468Z,11.80
2023-05-17T07:31:01.509Z,11.94
2023-05-17T07:32:01.455Z,11.99
2023-05-17T07:33:01.495Z,12.01
2023-05-17T07:34:01.489Z,12.02
2023-05-17T07:35:01.408Z,12.01
2023-05-17T07:36:01.468Z,11.94
2023-05-17T07:37:01.614Z,11.90
2023-05-17T07:38:01.379Z,11.86
2023-05-17T07:39:01.357Z,11.90
2023-05-17T07:40:01.347Z,11.86
2023-05-17T07:41:01.337Z,11.76
2023-05-17T07:42:02.831Z,11.69
2023-05-17T07:43:01.313Z,11.62
2023-05-17T07:44:01.290Z,11.55
2023-05-17T07:45:01.293Z,11.52
2023-05-17T07:46:01.277Z,11.47
2023-05-17T07:47:01.379Z,11.46
2023-05-17T07:48:01.348Z,11.46
2023-05-17T07:49:01.399Z,11.44
2023-05-17T07:50:01.233Z,11.39
2023-05-17T07:51:01.211Z,11.36
2023-05-17T07:52:01.191Z,11.27
2023-05-17T07:53:01.200Z,11.15
2023-05-17T07:54:01.189Z,11.04
2023-05-17T07:55:01.189Z,10.97
2023-05-17T07:56:01.177Z,11.00
2023-05-17T07:57:01.139Z,11.03
2023-05-17T07:58:01.141Z,11.19
2023-05-17T07:59:01.103Z,11.33
2023-05-17T08:00:01.135Z,11.46
2023-05-17T08:01:01.113Z,11.60
2023-05-17T08:02:01.052Z,11.75
2023-05-17T08:03:01.066Z,11.91
2023-05-17T08:04:01.060Z,12.09
2023-05-17T08:05:01.089Z,12.24
2023-05-17T08:06:01.042Z,12.38
2023-05-17T08:07:01.059Z,12.52
2023-05-17T08:08:00.982Z,12.65
2023-05-17T08:09:01.727Z,12.83
2023-05-17T08:10:00.950Z,12.96
2023-05-17T08:11:00.970Z,13.07
2023-05-17T08:12:01.880Z,13.10
2023-05-17T08:13:00.910Z,13.19
2023-05-17T08:14:00.903Z,13.22
2023-05-17T08:15:00.881Z,13.32
2023-05-17T08:16:12.736Z,13.36
2023-05-17T08:17:01.851Z,13.41
2023-05-17T08:18:03.738Z,13.41
2023-05-17T08:19:00.992Z,13.45
2023-05-17T08:20:04.956Z,13.55
2023-05-17T08:21:00.843Z,13.69
2023-05-17T08:22:01.550Z,13.82
2023-05-17T08:23:00.780Z,13.92
2023-05-17T08:24:02.096Z,14.06
2023-05-17T08:25:00.780Z,14.14
2023-05-17T08:26:00.740Z,14.25
2023-05-17T08:27:00.764Z,14.47
2023-05-17T08:28:00.776Z,14.69
2023-05-17T08:29:00.719Z,14.89
2023-05-17T08:30:00.718Z,15.07
2023-05-17T08:31:00.696Z,15.17
2023-05-17T08:32:00.660Z,15.29
2023-05-17T08:33:00.738Z,15.25
2023-05-17T08:34:00.800Z,15.29
2023-05-17T08:35:00.738Z,15.31
2023-05-17T08:36:00.666Z,15.34
2023-05-17T08:37:00.618Z,15.32
2023-05-17T08:38:00.588Z,15.17
2023-05-17T08:39:00.587Z,15.09
2023-05-17T08:40:00.779Z,15.03
2023-05-17T08:41:00.556Z,15.03
2023-05-17T08:42:00.523Z,15.03
2023-05-17T08:43:00.510Z,15.13
2023-05-17T08:44:00.507Z,15.14
2023-05-17T08:45:00.524Z,15.25
2023-05-17T08:46:00.497Z,15.34
2023-05-17T08:47:00.466Z,15.49
2023-05-17T08:48:00.496Z,15.64
2023-05-17T08:49:01.460Z,15.84
2023-05-17T08:50:00.573Z,16.01
2023-05-17T08:51:00.445Z,16.15
2023-05-17T08:52:00.400Z,16.12
2023-05-17T08:53:00.407Z,16.11
2023-05-17T08:54:00.361Z,16.23
2023-05-17T08:55:00.351Z,16.25
2023-05-17T08:56:00.419Z,16.30
2023-05-17T08:57:00.340Z,16.45
2023-05-17T08:58:00.328Z,16.52
2023-05-17T08:59:00.332Z,16.41
2023-05-17T09:00:00.296Z,16.14
2023-05-17T09:01:00.311Z,15.69
2023-05-17T09:02:00.269Z,15.49
2023-05-17T09:03:00.339Z,15.34
2023-05-17T09:04:00.261Z,15.17
2023-05-17T09:05:00.392Z,15.10
2023-05-17T09:06:00.293Z,15.13
2023-05-17T09:07:00.194Z,15.13
2023-05-17T09:08:00.190Z,15.17
2023-05-17T09:09:00.164Z,15.14
2023-05-17T09:10:00.162Z,15.13
2023-05-17T09:11:00.161Z,15.07
2023-05-17T09:12:00.171Z,15.19
2023-05-17T09:13:00.129Z,15.19
2023-05-17T09:14:00.127Z,15.21
2023-05-17T09:15:00.159Z,15.34
2023-05-17T09:16:00.083Z,15.51
2023-05-17T09:17:00.096Z,15.74
2023-05-17T09:18:00.255Z,15.90
2023-05-17T09:19:00.156Z,16.04
2023-05-17T09:20:00.225Z,16.30
2023-05-17T09:21:00.013Z,16.52
2023-05-17T09:22:00.041Z,16.75
2023-05-17T09:23:00.120Z,16.98
2023-05-17T09:24:06.175Z,17.11
2023-05-17T09:25:01.004Z,17.23
2023-05-17T09:25:59.938Z,17.28
2023-05-17T09:26:59.964Z,17.23
2023-05-17T09:27:59.947Z,17.28
2023-05-17T09:28:59.971Z,17.18
2023-05-17T09:29:59.901Z,16.86
2023-05-17T09:30:59.877Z,16.53
2023-05-17T09:31:59.872Z,16.24
2023-05-17T09:32:59.887Z,16.08
2023-05-17T09:33:59.909Z,16.11
2023-05-17T09:34:59.820Z,16.24
2023-05-17T09:35:59.806Z,16.31
2023-05-17T09:36:59.801Z,16.46
2023-05-17T09:37:59.814Z,16.60
2023-05-17T09:38:59.825Z,16.68
2023-05-17T09:39:59.756Z,16.73
2023-05-17T09:40:59.742Z,16.71
2023-05-17T09:41:59.740Z,16.67
2023-05-17T09:42:59.703Z,16.60
2023-05-17T09:43:59.892Z,16.48
2023-05-17T09:44:59.701Z,16.42
2023-05-17T09:45:59.673Z,16.39
2023-05-17T09:46:59.717Z,16.28
2023-05-17T09:47:59.682Z,16.25
2023-05-17T09:48:59.798Z,16.25
2023-05-17T09:49:59.621Z,16.25
2023-05-17T09:50:59.603Z,16.23
2023-05-17T09:51:59.604Z,16.14
2023-05-17T09:52:59.582Z,16.02
2023-05-17T09:53:59.587Z,15.94
2023-05-17T09:54:59.554Z,15.86
2023-05-17T09:55:59.564Z,15.75
2023-05-17T09:56:59.611Z,15.71
2023-05-17T09:57:59.505Z,15.60
2023-05-17T09:58:59.579Z,15.59
2023-05-17T09:59:59.506Z,15.59
2023-05-17T10:00:59.479Z,15.69
2023-05-17T10:01:59.515Z,15.90
2023-05-17T10:02:59.551Z,16.11
2023-05-17T10:04:00.280Z,16.33
2023-05-17T10:04:59.521Z,16.48
2023-05-17T10:05:59.426Z,16.68
2023-05-17T10:06:59.408Z,16.94
2023-05-17T10:07:59.415Z,17.18
2023-05-17T10:08:59.378Z,17.38
2023-05-17T10:09:59.396Z,17.48
2023-05-17T10:10:59.361Z,17.43
2023-05-17T10:11:59.346Z,17.49
2023-05-17T10:12:59.320Z,17.49
2023-05-17T10:13:59.338Z,17.43
2023-05-17T10:14:59.312Z,17.44
2023-05-17T10:15:59.318Z,17.52
2023-05-17T10:16:59.270Z,17.62
2023-05-17T10:17:59.349Z,17.75
2023-05-17T10:18:59.360Z,17.74
2023-05-17T10:19:59.347Z,17.75
2023-05-17T10:20:59.220Z,17.75
2023-05-17T10:22:11.142Z,17.72
2023-05-17T10:23:00.191Z,17.71
2023-05-17T10:23:59.197Z,17.77
2023-05-17T10:24:59.176Z,17.81
2023-05-17T10:25:59.186Z,17.79
2023-05-17T10:26:59.215Z,17.75
2023-05-17T10:27:59.145Z,17.71
2023-05-17T10:28:59.148Z,17.70
2023-05-17T10:29:59.117Z,17.66
2023-05-17T10:30:59.114Z,17.74
2023-05-17T10:31:59.076Z,17.71
2023-05-17T10:32:59.207Z,17.77
2023-05-17T10:33:59.088Z,17.81
2023-05-17T10:35:10.614Z,17.81
2023-05-17T10:36:00.032Z,17.86
2023-05-17T10:36:58.996Z,17.84
2023-05-17T10:37:59.022Z,17.97
2023-05-17T10:38:58.986Z,17.99
2023-05-17T10:39:58.963Z,18.11
2023-05-17T10:41:00.425Z,18.17
2023-05-17T10:42:13.566Z,18.10
2023-05-17T10:42:59.953Z,18.05
2023-05-17T10:43:58.929Z,17.95
2023-05-17T10:44:58.899Z,18.03
2023-05-17T10:45:58.893Z,18.17
2023-05-17T10:46:58.894Z,18.35
2023-05-17T10:48:01.072Z,18.58
2023-05-17T10:48:58.871Z,18.67
2023-05-17T10:49:58.847Z,18.67
2023-05-17T10:51:01.740Z,18.58
2023-05-17T10:51:58.801Z,18.58
2023-05-17T10:52:58.800Z,18.57
2023-05-17T10:53:58.840Z,18.45
2023-05-17T10:54:58.774Z,18.14
2023-05-17T10:55:58.790Z,17.79
2023-05-17T10:56:58.769Z,17.55
2023-05-17T10:57:58.721Z,17.48
2023-05-17T10:58:58.734Z,17.23
2023-05-17T10:59:58.734Z,17.15
2023-05-17T11:00:58.680Z,17.18
2023-05-17T11:01:58.702Z,17.15
2023-05-17T11:02:58.706Z,16.96
2023-05-17T11:03:58.648Z,16.97
2023-05-17T11:04:58.742Z,17.06
2023-05-17T11:05:58.640Z,17.19
2023-05-17T11:06:58.619Z,17.28
2023-05-17T11:07:58.622Z,17.22
2023-05-17T11:08:58.575Z,17.26
2023-05-17T11:09:58.597Z,17.36
2023-05-17T11:10:58.564Z,17.56
2023-05-17T11:11:58.548Z,17.84
2023-05-17T11:12:58.535Z,18.17
2023-05-17T11:13:58.533Z,18.45
2023-05-17T11:14:58.535Z,18.72
2023-05-17T11:15:58.520Z,18.99
2023-05-17T11:16:58.554Z,19.25
2023-05-17T11:17:58.498Z,19.36
2023-05-17T11:18:58.614Z,19.21
2023-05-17T11:19:58.633Z,19.13
2023-05-17T11:20:58.493Z,19.14
2023-05-17T11:21:58.406Z,19.22
2023-05-17T11:22:58.408Z,19.41
2023-05-17T11:23:58.399Z,19.65
2023-05-17T11:24:58.376Z,19.78
2023-05-17T11:26:05.714Z,19.77
2023-05-17T11:26:59.358Z,19.81
2023-05-17T11:27:58.366Z,19.69
2023-05-17T11:28:58.335Z,19.66
2023-05-17T11:29:58.343Z,19.63
2023-05-17T11:30:58.312Z,19.62
2023-05-17T11:31:58.291Z,19.66
2023-05-17T11:32:58.348Z,19.66
2023-05-17T11:33:58.278Z,19.31
2023-05-17T11:34:58.255Z,18.84
2023-05-17T11:35:58.298Z,18.69
2023-05-17T11:36:58.220Z,18.55
2023-05-17T11:37:58.213Z,18.35
2023-05-17T11:39:07.497Z,18.30
2023-05-17T11:39:59.206Z,18.33
2023-05-17T11:40:58.192Z,18.42
2023-05-17T11:41:58.377Z,18.58
2023-05-17T11:42:58.137Z,18.82
2023-05-17T11:43:58.117Z,18.84
2023-05-17T11:44:58.116Z,18.85
2023-05-17T11:45:58.127Z,18.95
2023-05-17T11:46:58.109Z,18.94
2023-05-17T11:47:58.159Z,18.76
2023-05-17T11:48:58.121Z,18.84
2023-05-17T11:49:58.051Z,18.87
2023-05-17T11:50:59.332Z,18.84
2023-05-17T11:51:58.022Z,18.91
2023-05-17T11:52:58.006Z,18.70
2023-05-17T11:53:58.205Z,18.63
2023-05-17T11:54:57.983Z,18.54
2023-05-17T11:55:57.966Z,18.51
2023-05-17T11:56:57.963Z,18.48
2023-05-17T11:57:57.974Z,18.36
2023-05-17T11:58:57.954Z,18.36
2023-05-17T11:59:57.937Z,18.55
2023-05-17T12:00:57.931Z,18.85
2023-05-17T12:01:57.890Z,19.19
2023-05-17T12:02:57.890Z,19.40
2023-05-17T12:03:57.899Z,19.31
2023-05-17T12:04:57.992Z,19.37
2023-05-17T12:05:57.908Z,19.43
2023-05-17T12:06:57.818Z,19.68
2023-05-17T12:07:57.829Z,19.80
2023-05-17T12:08:57.875Z,19.98
2023-05-17T12:09:57.819Z,20.21
2023-05-17T12:10:57.785Z,20.39
2023-05-17T12:11:57.756Z,20.51
2023-05-17T12:12:57.753Z,20.58
2023-05-17T12:13:57.729Z,20.58
2023-05-17T12:14:57.741Z,20.62
2023-05-17T12:15:57.876Z,20.73
2023-05-17T12:16:57.689Z,20.66
2023-05-17T12:17:58.814Z,20.24
2023-05-17T12:18:57.820Z,19.92
2023-05-17T12:19:58.686Z,19.50
2023-05-17T12:20:57.673Z,19.22
2023-05-17T12:21:57.641Z,18.94
2023-05-17T12:22:57.653Z,18.72
2023-05-17T12:23:57.594Z,18.47
2023-05-17T12:24:57.646Z,18.32
2023-05-17T12:25:57.572Z,18.23
2023-05-17T12:26:57.566Z,18.21
2023-05-17T12:27:57.573Z,18.11
2023-05-17T12:28:58.539Z,18.25
2023-05-17T12:29:57.537Z,18.44
2023-05-17T12:30:57.529Z,18.60
2023-05-17T12:31:57.502Z,18.65
2023-05-17T12:32:57.601Z,18.73
2023-05-17T12:33:57.518Z,18.78
2023-05-17T12:34:57.449Z,18.73
2023-05-17T12:35:57.429Z,18.76
2023-05-17T12:36:57.405Z,18.45
2023-05-17T12:37:57.399Z,18.35
2023-05-17T12:38:57.424Z,18.18
2023-05-17T12:39:57.376Z,18.21
2023-05-17T12:40:57.382Z,18.37
2023-05-17T12:41:57.359Z,18.72
2023-05-17T12:42:57.344Z,19.08
2023-05-17T12:44:13.700Z,19.39
2023-05-17T12:44:58.372Z,19.33
2023-05-17T12:45:57.335Z,19.31
2023-05-17T12:46:57.298Z,19.32
2023-05-17T12:47:57.339Z,19.00
2023-05-17T12:48:57.297Z,18.90
2023-05-17T12:49:57.272Z,18.95
2023-05-17T12:50:57.266Z,19.04
2023-05-17T12:51:57.228Z,19.26
2023-05-17T12:52:57.228Z,19.50
2023-05-17T12:53:57.214Z,19.48
2023-05-17T12:54:57.405Z,19.41
2023-05-17T12:55:57.181Z,19.21
2023-05-17T12:56:57.213Z,19.23
2023-05-17T12:57:57.147Z,19.43
2023-05-17T12:58:57.127Z,19.74
2023-05-17T12:59:57.139Z,20.03
2023-05-17T13:00:57.104Z,20.32
2023-05-17T13:01:57.105Z,20.58
2023-05-17T13:02:57.183Z,20.87
2023-05-17T13:03:57.164Z,20.88
2023-05-17T13:04:57.195Z,20.80
2023-05-17T13:05:57.100Z,20.58